Time;durP1;ratioP1;P1;durP2;ratioP2;P2;SDS_P1;SDS_P2;PMS_P1;PMS_P2;Temp;Humidity;BMP_temperature;BMP_pressure;BME280_temperature;BME280_humidity;BME280_pressure;Samples;Min_cycle;Max_cycle;Signal;HPM_P1;HPM_P2
2023/04/07 00:04:36;;;;;;;1.37;0.80;;;;;;;16.19;43.78;96601.56;10335264;28;20049;-25
2023/04/07 00:09:39;;;;;;;2.08;0.90;;;;;;;16.21;43.58;96604.94;10333193;28;20432;-25
2023/04/07 00:14:39;;;;;;;0.75;0.70;;;;;;;16.21;43.95;96594.84;10337909;28;20044;-25
2023/04/07 00:19:40;;;;;;;0.70;0.70;;;;;;;16.20;43.66;96587.28;10342550;28;20029;-25
2023/04/07 00:24:40;;;;;;;0.70;0.68;;;;;;;16.19;45.55;96590.63;10340209;28;20296;-25
2023/04/07 00:29:42;;;;;;;0.80;0.80;;;;;;;16.28;50.52;96588.19;10327253;28;20082;-25
2023/04/07 00:34:43;;;;;;;0.93;0.80;;;;;;;16.32;50.56;96587.34;10326356;28;20347;-25
2023/04/07 00:39:43;;;;;;;0.80;0.60;;;;;;;16.24;49.39;96584.78;10327324;28;20033;-25
2023/04/07 00:44:44;;;;;;;1.17;0.80;;;;;;;16.24;48.15;96582.25;10314143;28;20611;-25
2023/04/07 00:49:45;;;;;;;0.65;0.65;;;;;;;16.21;46.43;96564.53;10342045;28;20042;-25
2023/04/07 00:54:46;;;;;;;1.10;0.80;;;;;;;16.21;45.47;96556.13;10345458;28;20314;-25
2023/04/07 00:59:50;;;;;;;0.80;0.60;;;;;;;16.21;45.73;96554.44;10330855;28;20503;-25
2023/04/07 01:05:04;;;;;;;1.30;0.90;;;;;;;16.20;44.16;96557.78;10342966;28;20120;-25
2023/04/07 01:10:05;;;;;;;0.90;0.63;;;;;;;16.19;45.60;96545.19;10310077;28;20027;-25
2023/04/07 01:15:20;;;;;;;0.77;0.70;;;;;;;16.18;44.19;96548.53;10310411;28;20080;-25
2023/04/07 01:20:28;;;;;;;0.93;0.63;;;;;;;16.17;44.07;96542.63;10315867;28;20026;-25
2023/04/07 01:25:54;;;;;;;0.75;0.60;;;;;;;16.18;45.05;96546.03;10315365;28;20516;-25
2023/04/07 01:30:57;;;;;;;0.82;0.50;;;;;;;16.17;44.72;96535.06;10316220;28;20034;-25
2023/04/07 01:36:00;;;;;;;0.52;0.52;;;;;;;16.17;46.11;96542.63;10332617;28;20030;-25
2023/04/07 01:41:03;;;;;;;0.47;0.47;;;;;;;16.17;45.07;96530.00;10315101;28;20026;-25
2023/04/07 01:46:04;;;;;;;1.45;0.70;;;;;;;16.19;49.23;96520.75;10315230;28;20121;-25
2023/04/07 01:51:06;;;;;;;0.47;0.45;;;;;;;16.27;50.37;96511.53;10345648;28;20056;-25
2023/04/07 01:56:07;;;;;;;1.08;0.65;;;;;;;16.26;50.87;96512.38;10339740;28;20408;-25
2023/04/07 02:01:10;;;;;;;0.90;0.70;;;;;;;16.24;48.31;96518.25;10329226;28;20026;-25
2023/04/07 02:06:14;;;;;;;0.75;0.63;;;;;;;16.19;47.68;96505.59;10323838;28;20486;-25
2023/04/07 02:11:20;;;;;;;0.98;0.73;;;;;;;16.18;47.55;96492.97;10321855;28;20477;-26
2023/04/07 02:16:22;;;;;;;0.50;0.50;;;;;;;16.17;48.07;96479.50;10322524;28;20466;-25
2023/04/07 02:21:24;;;;;;;0.70;0.50;;;;;;;16.15;46.38;96471.06;10326794;28;20030;-25
2023/04/07 02:26:25;;;;;;;0.55;0.55;;;;;;;16.16;44.85;96464.31;10336779;28;20036;-26
2023/04/07 02:31:28;;;;;;;0.60;0.60;;;;;;;16.16;45.45;96465.19;10313641;28;20037;-25
2023/04/07 02:36:28;;;;;;;0.85;0.60;;;;;;;16.16;45.43;96444.13;10330839;28;20069;-25
2023/04/07 02:41:29;;;;;;;0.63;0.50;;;;;;;16.14;44.48;96441.63;10345418;28;20034;-25
2023/04/07 02:46:29;;;;;;;1.58;0.60;;;;;;;16.14;46.93;96436.56;10339055;28;20060;-25
2023/04/07 02:51:31;;;;;;;0.65;0.52;;;;;;;16.15;47.90;96442.44;10332438;28;20053;-25
2023/04/07 02:56:32;;;;;;;0.70;0.40;;;;;;;16.15;46.99;96448.34;10360124;28;20072;-25
2023/04/07 03:01:33;;;;;;;0.63;0.57;;;;;;;16.15;47.84;96452.53;10330083;28;20041;-25
2023/04/07 03:06:34;;;;;;;0.60;0.50;;;;;;;16.17;50.31;96456.78;10319876;28;20495;-25
2023/04/07 03:11:40;;;;;;;0.90;0.50;;;;;;;16.24;51.38;96448.38;10319014;28;20126;-25
2023/04/07 03:16:42;;;;;;;0.70;0.70;;;;;;;16.25;50.96;96439.09;10320104;28;20506;-25
2023/04/07 03:21:45;;;;;;;0.60;0.50;;;;;;;16.18;48.62;96438.25;10321361;28;20030;-25
2023/04/07 03:26:46;;;;;;;0.77;0.60;;;;;;;16.15;48.12;96443.28;10342297;28;20430;-25
2023/04/07 03:31:59;;;;;;;2.47;0.80;;;;;;;16.15;48.31;96455.91;10336626;28;20030;-25
2023/04/07 03:37:03;;;;;;;0.88;0.70;;;;;;;16.14;47.75;96444.13;10326571;28;20027;-25
2023/04/07 03:42:06;;;;;;;1.00;0.80;;;;;;;16.12;48.90;96433.16;10317999;28;20122;-25
2023/04/07 03:47:08;;;;;;;0.80;0.60;;;;;;;16.13;48.22;96429.78;10336563;28;20057;-25
2023/04/07 03:52:10;;;;;;;0.75;0.73;;;;;;;16.13;47.29;96428.97;10338017;28;20022;-25
2023/04/07 03:57:11;;;;;;;0.43;0.40;;;;;;;16.12;46.62;96425.59;10309212;28;20026;-25
2023/04/07 04:02:17;;;;;;;0.53;0.40;;;;;;;16.11;45.40;96418.84;10309848;28;20075;-25
2023/04/07 04:07:21;;;;;;;1.20;0.50;;;;;;;16.11;46.94;96418.84;10316999;28;20371;-25
2023/04/07 04:12:24;;;;;;;0.63;0.57;;;;;;;16.10;47.69;96409.59;10335113;28;20491;-25
2023/04/07 04:17:36;;;;;;;0.50;0.50;;;;;;;16.10;46.87;96404.53;10327331;28;20387;-25
2023/04/07 04:22:38;;;;;;;0.85;0.70;;;;;;;16.09;45.42;96397.81;10334123;28;20087;-25
2023/04/07 04:27:38;;;;;;;1.00;0.75;;;;;;;16.15;50.78;96395.31;10294241;28;20056;-25
2023/04/07 04:32:46;;;;;;;0.57;0.50;;;;;;;16.20;51.25;96396.16;10305130;28;20030;-25
2023/04/07 04:37:49;;;;;;;1.30;0.52;;;;;;;16.16;49.60;96388.56;10314998;28;20042;-25
2023/04/07 04:42:49;;;;;;;0.82;0.60;;;;;;;16.13;49.02;96379.28;10342268;28;20034;-25
2023/04/07 04:47:52;;;;;;;0.50;0.50;;;;;;;16.12;48.60;96384.34;10309194;28;20510;-25
2023/04/07 04:52:52;;;;;;;0.55;0.50;;;;;;;16.10;48.52;96374.25;10348252;28;20038;-25
2023/04/07 04:57:56;;;;;;;0.57;0.50;;;;;;;16.11;49.09;96377.63;10332403;28;20050;-25
2023/04/07 05:03:07;;;;;;;0.50;0.50;;;;;;;16.09;46.81;96387.72;10329613;28;20023;-25
2023/04/07 05:08:11;;;;;;;0.50;0.50;;;;;;;16.09;48.24;96395.28;10325362;28;20030;-25
2023/04/07 05:13:14;;;;;;;0.60;0.50;;;;;;;16.08;46.93;96395.25;10315647;28;20027;-26
2023/04/07 05:18:14;;;;;;;0.43;0.30;;;;;;;16.08;46.39;96386.03;10328392;28;20030;-25
2023/04/07 05:23:15;;;;;;;0.60;0.60;;;;;;;16.07;46.51;96394.44;10324526;28;20026;-25
2023/04/07 05:28:18;;;;;;;0.77;0.50;;;;;;;16.08;48.08;96396.13;10323382;28;20524;-25
2023/04/07 05:33:20;;;;;;;0.60;0.40;;;;;;;16.07;47.22;96389.38;10321496;28;20061;-25
2023/04/07 05:38:25;;;;;;;0.40;0.40;;;;;;;16.07;49.20;96394.44;10316104;28;20526;-25
2023/04/07 05:43:29;;;;;;;0.57;0.52;;;;;;;16.07;49.43;96389.38;10308066;28;20054;-25
2023/04/07 05:48:30;;;;;;;0.95;0.60;;;;;;;16.14;51.09;96396.16;10314736;28;20513;-25
2023/04/07 05:53:30;;;;;;;0.52;0.43;;;;;;;16.17;51.13;96391.09;10328146;28;20080;-25
2023/04/07 05:58:31;;;;;;;0.65;0.50;;;;;;;16.11;49.46;96388.53;10315377;28;20061;-25
2023/04/07 06:03:32;;;;;;;0.30;0.30;;;;;;;16.09;48.45;96387.72;10322351;28;20036;-25
2023/04/07 06:08:47;;;;;;;0.55;0.50;;;;;;;16.09;48.50;96382.66;10309283;28;20042;-25
2023/04/07 06:13:47;;;;;;;0.63;0.50;;;;;;;16.06;48.96;96377.59;10314434;28;20417;-25
2023/04/07 06:18:47;;;;;;;0.90;0.43;;;;;;;16.06;49.32;96386.84;10317538;28;20042;-25
2023/04/07 06:23:48;;;;;;;0.30;0.30;;;;;;;16.04;48.23;96379.25;10345765;28;20298;-25
2023/04/07 06:28:48;;;;;;;0.93;0.50;;;;;;;16.05;48.53;96393.59;10320207;28;20293;-25
2023/04/07 06:33:49;;;;;;;0.55;0.50;;;;;;;16.06;47.73;96391.91;10348738;28;20289;-25
2023/04/07 06:38:50;;;;;;;0.95;0.60;;;;;;;16.04;48.66;96394.41;10346339;28;20042;-25
2023/04/07 06:43:50;;;;;;;0.40;0.40;;;;;;;16.04;49.00;96394.41;10338944;28;20038;-25
2023/04/07 06:48:50;;;;;;;0.40;0.40;;;;;;;16.04;47.06;96399.47;10347838;28;20034;-25
2023/04/07 06:53:51;;;;;;;0.50;0.50;;;;;;;16.04;47.77;96404.50;10331265;28;20494;-25
2023/04/07 06:58:51;;;;;;;0.40;0.40;;;;;;;16.02;46.33;96405.38;10338229;28;20034;-25
2023/04/07 07:03:52;;;;;;;0.45;0.40;;;;;;;16.05;48.38;96415.47;10334823;28;20305;-25
2023/04/07 07:08:53;;;;;;;0.50;0.50;;;;;;;16.12;51.25;96420.53;10338407;28;20030;-25
2023/04/07 07:13:53;;;;;;;0.30;0.30;;;;;;;16.13;51.54;96419.69;10335336;28;20034;-25
2023/04/07 07:18:54;;;;;;;0.70;0.50;;;;;;;16.07;49.45;96423.88;10319262;28;20034;-25
2023/04/07 07:23:55;;;;;;;0.63;0.40;;;;;;;16.07;48.86;96429.78;10338781;28;20418;-25
2023/04/07 07:28:55;;;;;;;0.65;0.60;;;;;;;16.04;49.27;96429.75;10335386;28;20040;-25
2023/04/07 07:33:55;;;;;;;1.23;0.60;;;;;;;16.04;48.63;96434.81;10336669;28;20517;-25
2023/04/07 07:38:56;;;;;;;0.55;0.40;;;;;;;16.03;48.06;96430.59;10344639;28;20510;-25
2023/04/07 07:43:56;;;;;;;0.50;0.43;;;;;;;16.03;48.73;96437.34;10342521;28;20117;-25
2023/04/07 07:48:57;;;;;;;0.40;0.38;;;;;;;16.03;48.37;96433.13;10336607;28;20289;-25
2023/04/07 07:53:57;;;;;;;0.40;0.30;;;;;;;16.02;47.53;96448.28;10333309;28;20092;-25
2023/04/07 07:58:58;;;;;;;0.60;0.50;;;;;;;16.02;47.25;96451.63;10342234;28;20372;-25
2023/04/07 08:04:00;;;;;;;0.40;0.40;;;;;;;16.02;47.11;96456.69;10350272;28;20034;-25
2023/04/07 08:09:01;;;;;;;0.57;0.57;;;;;;;16.02;49.12;96461.72;10320217;28;20532;-25
2023/04/07 08:14:01;;;;;;;0.80;0.60;;;;;;;16.02;48.63;96471.00;10335462;28;20126;-25
2023/04/07 08:19:02;;;;;;;0.45;0.40;;;;;;;16.02;47.75;96476.06;10318759;28;20113;-25
2023/04/07 08:24:03;;;;;;;0.50;0.47;;;;;;;16.00;50.12;96477.69;10329413;28;20105;-25
2023/04/07 08:29:05;;;;;;;0.63;0.50;;;;;;;16.08;51.21;96481.97;10343253;28;20034;-25
2023/04/07 08:34:06;;;;;;;0.60;0.40;;;;;;;16.11;51.46;96486.19;10342780;28;20037;-25
2023/04/07 08:39:06;;;;;;;0.45;0.45;;;;;;;16.05;49.59;96487.03;10350444;28;20398;-25
2023/04/07 08:44:08;;;;;;;0.50;0.50;;;;;;;16.04;49.20;96504.69;10331948;28;20499;-25
2023/04/07 08:49:12;;;;;;;0.57;0.52;;;;;;;16.02;49.17;96496.25;10334263;28;20040;-25
2023/04/07 08:54:15;;;;;;;0.32;0.32;;;;;;;16.01;48.76;96502.97;10320872;28;20049;-25
2023/04/07 08:59:24;;;;;;;0.60;0.50;;;;;;;16.01;48.85;96509.69;10321859;28;20026;-25
2023/04/07 09:04:26;;;;;;;0.63;0.50;;;;;;;16.01;48.37;96519.78;10319582;28;20031;-25
2023/04/07 09:09:26;;;;;;;0.65;0.55;;;;;;;15.99;49.07;96509.69;10321699;28;20026;-25
2023/04/07 09:14:27;;;;;;;0.80;0.60;;;;;;;15.99;47.99;96517.28;10329039;28;20125;-25
2023/04/07 09:19:29;;;;;;;0.80;0.50;;;;;;;16.00;48.43;96523.16;10338874;28;20132;-25
2023/04/07 09:24:32;;;;;;;0.55;0.30;;;;;;;16.00;49.06;96528.19;10327633;28;20038;-25
2023/04/07 09:29:32;;;;;;;0.43;0.40;;;;;;;15.98;50.03;96525.69;10334397;28;20042;-25
2023/04/07 09:34:38;;;;;;;0.87;0.50;;;;;;;15.98;48.90;96530.75;10333571;28;20109;-25
2023/04/07 09:39:49;;;;;;;0.60;0.50;;;;;;;15.99;47.97;96534.09;10344403;28;20296;-25
2023/04/07 09:44:50;;;;;;;0.73;0.40;;;;;;;15.98;49.07;96533.25;10325512;28;20482;-25
2023/04/07 09:49:52;;;;;;;0.70;0.50;;;;;;;16.04;51.81;96534.97;10348975;28;20034;-25
2023/04/07 09:54:54;;;;;;;0.50;0.50;;;;;;;16.07;51.86;96529.94;10351456;28;20038;-25
2023/04/07 09:59:56;;;;;;;0.60;0.47;;;;;;;16.04;49.99;96530.75;10316012;28;20487;-26
2023/04/07 10:04:57;;;;;;;0.73;0.40;;;;;;;16.02;49.19;96534.97;10346738;28;20487;-25
2023/04/07 10:09:58;;;;;;;0.63;0.60;;;;;;;16.01;49.09;96535.78;10336475;28;20113;-25
2023/04/07 10:15:00;;;;;;;0.60;0.50;;;;;;;16.00;49.26;96539.16;10331691;28;20042;-25
2023/04/07 10:20:03;;;;;;;0.68;0.40;;;;;;;16.00;49.96;96539.16;10330926;28;20561;-25
2023/04/07 10:25:09;;;;;;;0.40;0.40;;;;;;;15.98;49.33;96540.84;10345208;28;20030;-25
2023/04/07 10:30:14;;;;;;;0.60;0.60;;;;;;;15.97;49.45;96538.28;10343220;28;20565;-25
2023/04/07 10:35:16;;;;;;;0.38;0.38;;;;;;;15.98;49.48;96542.50;10330988;28;20042;-25
2023/04/07 10:40:26;;;;;;;0.35;0.35;;;;;;;15.96;49.83;96550.06;10330047;28;20470;-25
2023/04/07 10:45:45;;;;;;;0.57;0.50;;;;;;;15.96;49.81;96552.56;10330788;28;20034;-25
2023/04/07 10:51:07;;;;;;;0.55;0.50;;;;;;;15.96;48.92;96549.22;10332612;28;20042;-25
2023/04/07 10:56:09;;;;;;;0.65;0.63;;;;;;;15.96;49.02;96554.28;10337067;28;20417;-26
2023/04/07 11:01:11;;;;;;;0.45;0.45;;;;;;;15.95;49.54;96555.94;10330237;28;20494;-25
2023/04/07 11:06:13;;;;;;;0.38;0.30;;;;;;;15.95;50.41;96561.00;10338013;28;20080;-25
2023/04/07 11:11:15;;;;;;;0.57;0.57;;;;;;;16.02;51.86;96560.19;10337340;28;20031;-25
2023/04/07 11:16:18;;;;;;;0.32;0.32;;;;;;;16.05;51.87;96557.72;10328792;28;20521;-25
2023/04/07 11:21:18;;;;;;;0.38;0.35;;;;;;;16.03;50.27;96568.63;10337358;28;20038;-25
2023/04/07 11:26:20;;;;;;;0.82;0.80;;;;;;;15.99;48.78;96565.25;10319165;28;20039;-25
2023/04/07 11:31:31;;;;;;;0.47;0.40;;;;;;;15.97;49.49;96566.91;10328772;28;20066;-25
2023/04/07 11:36:35;;;;;;;0.40;0.40;;;;;;;15.96;49.16;96567.72;10326049;28;20514;-25
2023/04/07 11:41:45;;;;;;;0.50;0.40;;;;;;;15.97;49.24;96573.63;10332569;28;20030;-25
2023/04/07 11:46:56;;;;;;;1.02;0.35;;;;;;;15.95;49.29;96580.34;10335991;28;20037;-25
2023/04/07 11:52:02;;;;;;;0.40;0.40;;;;;;;15.95;49.11;96580.34;10329017;28;20173;-25
2023/04/07 11:57:02;;;;;;;0.40;0.40;;;;;;;15.95;48.29;96585.41;10335473;28;20038;-25
2023/04/07 12:02:03;;;;;;;0.47;0.40;;;;;;;15.92;50.01;96590.41;10328342;28;20031;-25
2023/04/07 12:07:08;;;;;;;0.30;0.30;;;;;;;15.93;48.61;96590.44;10336229;28;20042;-25
2023/04/07 12:12:09;;;;;;;0.50;0.40;;;;;;;15.90;49.82;96582.84;10335044;28;20042;-25
2023/04/07 12:17:22;;;;;;;0.40;0.40;;;;;;;15.93;49.45;96595.50;10326563;28;20046;-25
2023/04/07 12:22:23;;;;;;;0.30;0.28;;;;;;;15.93;48.40;96592.13;10343437;28;20026;-25
2023/04/07 12:27:23;;;;;;;0.30;0.30;;;;;;;15.93;49.76;96592.13;10338298;28;20034;-25
2023/04/07 12:32:24;;;;;;;0.33;0.33;;;;;;;15.99;51.50;96598.06;10330726;28;20022;-25
2023/04/07 12:37:25;;;;;;;0.40;0.40;;;;;;;16.01;51.98;96596.38;10346906;28;20277;-25
2023/04/07 12:42:26;;;;;;;0.47;0.47;;;;;;;16.00;49.79;96603.94;10334551;28;20026;-25
2023/04/07 12:47:26;;;;;;;0.70;0.50;;;;;;;15.97;48.61;96597.22;10338934;28;20037;-25
2023/04/07 12:52:29;;;;;;;0.47;0.47;;;;;;;15.95;49.44;96598.03;10323566;28;20030;-25
2023/04/07 12:57:29;;;;;;;0.43;0.35;;;;;;;15.93;48.80;96598.00;10325965;28;20294;-26
2023/04/07 13:02:30;;;;;;;0.50;0.40;;;;;;;15.90;48.85;96592.94;10326116;28;20038;-25
2023/04/07 13:07:30;;;;;;;0.30;0.30;;;;;;;15.92;48.25;96600.50;10334747;28;20473;-25
2023/04/07 13:12:31;;;;;;;0.45;0.43;;;;;;;15.92;49.47;96601.38;10328642;28;20041;-25
2023/04/07 13:17:31;;;;;;;0.50;0.40;;;;;;;15.91;48.96;96599.69;10346097;28;20033;-25
2023/04/07 13:22:32;;;;;;;0.20;0.20;;;;;;;15.92;48.38;96603.91;10337445;28;20030;-25
2023/04/07 13:27:32;;;;;;;0.45;0.32;;;;;;;15.91;48.76;96603.88;10320801;28;20045;-25
2023/04/07 13:32:33;;;;;;;0.38;0.32;;;;;;;15.91;48.88;96596.31;10341870;28;20038;-25
2023/04/07 13:37:33;;;;;;;0.43;0.43;;;;;;;15.89;48.13;96598.84;10341149;28;20042;-25
2023/04/07 13:42:34;;;;;;;0.30;0.30;;;;;;;15.89;48.38;96598.84;10343305;28;20505;-25
2023/04/07 13:47:35;;;;;;;0.40;0.30;;;;;;;15.88;48.00;96584.50;10341206;28;20284;-25
2023/04/07 13:52:35;;;;;;;0.40;0.40;;;;;;;15.93;51.88;96598.00;10342883;28;20301;-25
2023/04/07 13:57:36;;;;;;;0.55;0.55;;;;;;;15.97;51.76;96599.75;10336010;28;20042;-25
2023/04/07 14:02:36;;;;;;;0.43;0.43;;;;;;;16.01;51.77;96601.44;10350843;28;20034;-25
2023/04/07 14:07:36;;;;;;;0.33;0.30;;;;;;;15.93;50.03;96589.59;10329920;28;20034;-25
2023/04/07 14:12:37;;;;;;;0.80;0.53;;;;;;;15.92;49.35;96591.28;10339656;28;20336;-25
2023/04/07 14:17:37;;;;;;;0.30;0.30;;;;;;;15.91;49.79;96588.72;10339233;28;20301;-25
2023/04/07 14:22:38;;;;;;;0.37;0.37;;;;;;;15.89;49.59;96590.41;10347961;28;20289;-25
2023/04/07 14:27:38;;;;;;;0.30;0.30;;;;;;;15.89;50.37;96588.75;10330930;28;20285;-25
2023/04/07 14:32:38;;;;;;;0.45;0.45;;;;;;;15.89;49.01;96587.88;10332903;28;20293;-25
2023/04/07 14:37:39;;;;;;;0.67;0.67;;;;;;;15.89;49.83;96587.88;10336618;28;20069;-25
2023/04/07 14:42:40;;;;;;;0.25;0.25;;;;;;;15.87;48.60;96585.34;10354329;28;20731;-25
2023/04/07 14:47:40;;;;;;;0.30;0.30;;;;;;;15.88;50.26;96586.19;10342564;28;20704;-25
2023/04/07 14:52:42;;;;;;;0.57;0.57;;;;;;;15.85;49.13;96579.44;10346202;28;20045;-25
2023/04/07 14:57:42;;;;;;;0.57;0.43;;;;;;;15.87;49.87;96577.75;10353846;28;20347;-25
2023/04/07 15:02:43;;;;;;;0.43;0.40;;;;;;;15.86;49.59;96581.13;10338309;28;20557;-25
2023/04/07 15:07:44;;;;;;;0.30;0.30;;;;;;;15.86;48.47;96583.66;10346327;28;20342;-25
2023/04/07 15:12:45;;;;;;;0.47;0.30;;;;;;;15.88;49.28;96587.00;10328979;28;20373;-25
2023/04/07 15:17:45;;;;;;;0.50;0.35;;;;;;;15.94;52.02;96589.59;10337599;28;20097;-25
2023/04/07 15:22:46;;;;;;;0.20;0.20;;;;;;;15.97;52.26;96589.66;10345045;28;20042;-25
2023/04/07 15:27:46;;;;;;;0.30;0.30;;;;;;;15.93;49.76;96590.44;10346099;28;20034;-25
2023/04/07 15:33:02;;;;;;;0.83;0.80;;;;;;;15.91;48.49;96593.78;10330154;28;20855;-25
2023/04/07 15:38:03;;;;;;;0.35;0.35;;;;;;;15.85;49.10;96592.06;10328873;28;20316;-26
2023/04/07 15:43:05;;;;;;;0.30;0.30;;;;;;;15.87;49.21;96597.94;10335940;28;20073;-25
2023/04/07 15:48:07;;;;;;;0.30;0.30;;;;;;;15.87;49.19;96607.22;10328219;28;20506;-25
2023/04/07 15:53:07;;;;;;;0.30;0.30;;;;;;;15.86;48.43;96610.59;10336201;28;20046;-25
2023/04/07 15:58:09;;;;;;;0.43;0.40;;;;;;;15.85;48.84;96604.69;10337737;28;20037;-25
2023/04/07 16:03:09;;;;;;;0.38;0.38;;;;;;;15.84;48.44;96605.50;10327314;28;20527;-25
2023/04/07 16:08:10;;;;;;;0.30;0.30;;;;;;;15.84;47.54;96608.03;10336965;28;20038;-25
2023/04/07 16:13:10;;;;;;;0.40;0.30;;;;;;;15.85;49.71;96619.00;10338124;28;20909;-25
2023/04/07 16:18:11;;;;;;;0.30;0.30;;;;;;;15.85;49.17;96624.03;10313142;28;20472;-25
2023/04/07 16:23:11;;;;;;;0.47;0.40;;;;;;;15.83;48.98;96626.53;10327685;28;20034;-25
2023/04/07 16:28:11;;;;;;;0.40;0.40;;;;;;;15.84;47.79;96637.47;10351288;28;20398;-25
2023/04/07 16:33:12;;;;;;;0.40;0.30;;;;;;;15.83;50.03;96636.63;10334998;28;20038;-25
2023/04/07 16:38:12;;;;;;;0.50;0.40;;;;;;;15.91;51.84;96649.31;10334463;28;20068;-25
2023/04/07 16:43:13;;;;;;;0.47;0.47;;;;;;;15.92;51.81;96649.34;10326145;28;20184;-25
2023/04/07 16:48:13;;;;;;;0.40;0.40;;;;;;;15.90;50.63;96645.97;10347942;28;20068;-24
2023/04/07 16:53:14;;;;;;;0.30;0.30;;;;;;;15.85;49.28;96642.53;10352805;28;20304;-25
2023/04/07 16:58:17;;;;;;;0.43;0.40;;;;;;;15.86;49.09;96643.41;10351418;28;20657;-25
2023/04/07 17:03:18;;;;;;;0.20;0.20;;;;;;;15.82;50.14;96649.25;10341054;28;20755;-25
2023/04/07 17:08:18;;;;;;;0.30;0.30;;;;;;;15.83;49.67;96651.78;10326416;28;20042;-25
2023/04/07 17:13:18;;;;;;;0.47;0.47;;;;;;;15.82;49.73;96655.16;10341764;28;20301;-25
2023/04/07 17:18:19;;;;;;;0.30;0.30;;;;;;;15.82;49.41;96661.84;10333746;28;20293;-25
2023/04/07 17:23:19;;;;;;;0.57;0.40;;;;;;;15.82;50.20;96669.44;10341842;28;20289;-27
2023/04/07 17:28:20;;;;;;;0.40;0.40;;;;;;;15.82;47.42;96671.94;10349572;28;20038;-25
2023/04/07 17:33:20;;;;;;;0.13;0.13;;;;;;;15.82;49.51;96677.84;10332935;28;20535;-25
2023/04/07 17:38:21;;;;;;;0.40;0.40;;;;;;;15.81;48.15;96681.22;10332780;28;20030;-25
2023/04/07 17:43:21;;;;;;;0.32;0.30;;;;;;;15.77;48.28;96676.97;10343945;28;20281;-25
2023/04/07 17:48:22;;;;;;;0.30;0.30;;;;;;;15.81;49.08;96688.78;10350408;28;20034;-25
2023/04/07 17:53:22;;;;;;;0.30;0.30;;;;;;;15.80;48.91;96701.38;10354728;28;20039;-25
2023/04/07 17:58:23;;;;;;;0.60;0.53;;;;;;;15.82;51.95;96702.25;10339945;28;20048;-25
2023/04/07 18:03:23;;;;;;;0.35;0.35;;;;;;;15.87;52.15;96713.25;10333926;28;20307;-26
2023/04/07 18:08:24;;;;;;;0.22;0.20;;;;;;;15.91;51.94;96720.00;10337645;28;20410;-25
2023/04/07 18:13:25;;;;;;;0.30;0.30;;;;;;;15.84;50.04;96726.69;10348162;28;20089;-25
2023/04/07 18:18:25;;;;;;;0.30;0.30;;;;;;;15.81;50.05;96729.19;10331493;28;20069;-25
2023/04/07 18:23:26;;;;;;;0.43;0.43;;;;;;;15.80;50.66;96737.59;10339098;28;20068;-26
2023/04/07 18:28:26;;;;;;;0.20;0.20;;;;;;;15.80;49.47;96742.63;10347623;28;20807;-25
2023/04/07 18:33:31;;;;;;;0.30;0.30;;;;;;;15.80;49.85;96752.72;10338850;28;20049;-25
2023/04/07 18:38:32;;;;;;;0.30;0.30;;;;;;;15.80;48.52;96757.78;10338206;28;20402;-25
2023/04/07 18:43:33;;;;;;;0.30;0.30;;;;;;;15.79;48.20;96766.16;10342191;28;20030;-25
2023/04/07 18:48:33;;;;;;;0.50;0.40;;;;;;;15.79;49.86;96766.16;10347906;28;20030;-25
2023/04/07 18:53:34;;;;;;;0.30;0.30;;;;;;;15.79;49.39;96776.25;10342745;28;20065;-25
2023/04/07 18:58:42;;;;;;;0.50;0.50;;;;;;;15.78;48.03;96777.09;10354442;28;20041;-25
2023/04/07 19:03:42;;;;;;;0.30;0.30;;;;;;;15.78;48.37;96781.31;10337854;28;20057;-25
2023/04/07 19:08:43;;;;;;;0.25;0.25;;;;;;;15.78;48.53;96779.59;10319057;28;20062;-25
2023/04/07 19:13:43;;;;;;;0.30;0.30;;;;;;;15.78;48.28;96798.97;10345636;28;20026;-25
2023/04/07 19:18:44;;;;;;;0.38;0.38;;;;;;;15.78;51.09;96799.81;10331920;28;20034;-25
2023/04/07 19:23:44;;;;;;;0.30;0.30;;;;;;;15.82;51.91;96803.22;10329434;28;20102;-25
2023/04/07 19:28:45;;;;;;;0.30;0.30;;;;;;;15.84;51.99;96796.50;10328053;28;20761;-25
2023/04/07 19:33:46;;;;;;;0.28;0.20;;;;;;;15.82;50.68;96800.69;10352994;28;20026;-25
2023/04/07 19:38:46;;;;;;;0.30;0.30;;;;;;;15.78;49.68;96802.31;10343946;28;20037;-25
2023/04/07 19:43:47;;;;;;;0.30;0.30;;;;;;;15.77;49.59;96802.34;10341375;28;20040;-25
2023/04/07 19:48:47;;;;;;;0.20;0.20;;;;;;;15.77;50.16;96810.72;10347988;28;20805;-25
2023/04/07 19:53:48;;;;;;;0.60;0.40;;;;;;;15.75;49.68;96814.91;10335723;28;20042;-25
2023/04/07 19:58:48;;;;;;;0.32;0.32;;;;;;;15.73;49.59;96811.53;10344871;28;20125;-25
2023/04/07 20:03:49;;;;;;;0.40;0.40;;;;;;;15.75;49.90;96825.00;10340092;28;20021;-25
2023/04/07 20:08:49;;;;;;;0.20;0.20;;;;;;;15.75;48.87;96829.22;10329840;28;20455;-25
2023/04/07 20:13:50;;;;;;;0.20;0.20;;;;;;;15.74;48.17;96835.94;10335732;28;20421;-25
2023/04/07 20:18:50;;;;;;;0.30;0.30;;;;;;;15.74;48.81;96833.41;10335255;28;20035;-25
2023/04/07 20:23:51;;;;;;;0.30;0.30;;;;;;;15.74;48.86;96830.91;10334618;28;20305;-25
2023/04/07 20:28:52;;;;;;;0.40;0.33;;;;;;;15.73;48.73;96839.31;10335288;28;20528;-24
2023/04/07 20:33:52;;;;;;;0.25;0.25;;;;;;;15.74;49.43;96846.03;10317467;28;20810;-25
2023/04/07 20:38:53;;;;;;;0.30;0.30;;;;;;;15.72;48.95;96845.19;10322831;28;20069;-25
2023/04/07 20:43:53;;;;;;;0.30;0.30;;;;;;;15.73;51.59;96844.34;10332249;28;20041;-25
2023/04/07 20:48:55;;;;;;;0.40;0.38;;;;;;;15.79;52.11;96846.09;10334715;28;20446;-25
2023/04/07 20:53:55;;;;;;;0.25;0.25;;;;;;;15.79;51.77;96846.94;10338304;28;20030;-25
2023/04/07 20:58:56;;;;;;;0.25;0.25;;;;;;;15.74;50.18;96858.66;10337321;28;20486;-25
2023/04/07 21:03:58;;;;;;;0.30;0.30;;;;;;;15.71;49.94;96848.50;10337094;28;20026;-25
2023/04/07 21:08:58;;;;;;;0.20;0.20;;;;;;;15.73;50.04;96861.16;10325939;28;20041;-25
2023/04/07 21:13:59;;;;;;;0.10;0.10;;;;;;;15.71;50.06;96862.81;10342600;28;20023;-25
2023/04/07 21:18:59;;;;;;;0.20;0.20;;;;;;;15.71;50.41;96863.66;10338874;28;20289;-25
2023/04/07 21:24:00;;;;;;;0.38;0.30;;;;;;;15.71;50.96;96868.69;10308315;28;20441;-25
2023/04/07 21:29:00;;;;;;;0.30;0.30;;;;;;;15.70;50.63;96867.00;10334230;28;20443;-25
2023/04/07 21:34:01;;;;;;;0.30;0.30;;;;;;;15.71;48.31;96867.88;10338072;28;20030;-25
2023/04/07 21:39:01;;;;;;;0.25;0.25;;;;;;;15.70;49.16;96861.97;10332736;28;20584;-25
2023/04/07 21:44:02;;;;;;;0.40;0.32;;;;;;;15.70;48.98;96868.69;10333667;28;20080;-25
2023/04/07 21:49:03;;;;;;;0.27;0.20;;;;;;;15.70;48.19;96867.00;10347812;28;20038;-25
2023/04/07 21:54:03;;;;;;;0.30;0.30;;;;;;;15.69;49.14;96867.84;10338211;28;20691;-25
2023/04/07 21:59:04;;;;;;;0.55;0.35;;;;;;;15.69;48.83;96865.31;10335242;28;20034;-24
2023/04/07 22:04:04;;;;;;;0.30;0.30;;;;;;;15.69;49.32;96864.47;10352271;28;20109;-24
2023/04/07 22:09:06;;;;;;;0.30;0.30;;;;;;;15.73;51.78;96859.50;10347883;28;20077;-25
2023/04/07 22:14:06;;;;;;;0.30;0.30;;;;;;;15.76;51.80;96857.00;10345548;28;20269;-25
2023/04/07 22:19:08;;;;;;;0.15;0.15;;;;;;;15.78;51.09;96859.56;10352163;28;20050;-25
2023/04/07 22:24:08;;;;;;;0.38;0.22;;;;;;;15.67;50.32;96864.44;10348931;28;20105;-25
2023/04/07 22:29:09;;;;;;;0.20;0.20;;;;;;;15.67;50.17;96866.13;10349345;28;20038;-25
2023/04/07 22:34:10;;;;;;;0.22;0.22;;;;;;;15.68;50.08;96873.72;10346506;28;20029;-24
2023/04/07 22:39:10;;;;;;;0.30;0.30;;;;;;;15.67;49.85;96864.44;10327506;23;20498;-29
2023/04/07 22:44:11;;;;;;;0.40;0.30;;;;;;;15.67;50.65;96871.16;10297807;28;20097;-29
2023/04/07 22:49:11;;;;;;;0.20;0.20;;;;;;;15.67;50.18;96872.03;10294468;28;20034;-29
2023/04/07 22:54:12;;;;;;;0.20;0.20;;;;;;;15.65;49.79;96881.25;10289651;28;20424;-29
2023/04/07 22:59:12;;;;;;;0.33;0.20;;;;;;;15.64;48.94;96871.13;10293912;28;20034;-29
2023/04/07 23:04:12;;;;;;;0.30;0.30;;;;;;;15.66;49.32;96874.50;10294680;28;20035;-29
2023/04/07 23:09:13;;;;;;;0.37;0.20;;;;;;;15.66;48.71;96877.03;10355034;23;20045;-25
2023/04/07 23:14:13;;;;;;;0.13;0.13;;;;;;;15.65;49.42;96881.25;10363903;28;20030;-25
2023/04/07 23:19:14;;;;;;;0.30;0.30;;;;;;;15.66;48.89;96879.56;10374523;28;20117;-24
2023/04/07 23:24:15;;;;;;;0.28;0.28;;;;;;;15.64;49.65;96882.09;10382980;28;20409;-24